Time;durP1;ratioP1;P1;durP2;ratioP2;P2;SDS_P1;SDS_P2;PMS_P1;PMS_P2;Temp;Humidity;BMP_temperature;BMP_pressure;BME280_temperature;BME280_humidity;BME280_pressure;Samples;Min_cycle;Max_cycle;Signal;HPM_P1;HPM_P2
2021/10/30 00:00:10;;;;;;;42.90;29.55;;;;;;;7.46;88.18;100447.69;4869329;29;20053;-68
2021/10/30 00:02:38;;;;;;;40.42;30.40;;;;;;;7.48;88.17;100440.63;4874903;29;20055;-68
2021/10/30 00:05:07;;;;;;;41.42;31.33;;;;;;;7.56;87.19;100443.69;4893387;29;20048;-68
2021/10/30 00:07:34;;;;;;;38.85;30.10;;;;;;;7.50;88.36;100454.50;4895327;29;20055;-67
2021/10/30 00:10:02;;;;;;;45.05;32.63;;;;;;;7.54;87.35;100466.50;4876351;29;20063;-70
2021/10/30 00:12:29;;;;;;;52.55;32.10;;;;;;;7.53;88.40;100460.44;4901841;29;20385;-67
2021/10/30 00:14:57;;;;;;;48.80;30.30;;;;;;;7.44;89.04;100453.03;4892542;29;20055;-68
2021/10/30 00:17:24;;;;;;;48.38;31.90;;;;;;;7.27;89.49;100447.75;4899458;29;20057;-69
2021/10/30 00:19:51;;;;;;;45.92;33.30;;;;;;;7.15;90.16;100449.16;4892277;29;20045;-68
2021/10/30 00:22:18;;;;;;;40.90;31.42;;;;;;;7.18;90.33;100446.41;4898536;29;20048;-69
2021/10/30 00:24:45;;;;;;;43.60;32.58;;;;;;;6.94;91.62;100452.81;4891893;29;20068;-69
2021/10/30 00:27:13;;;;;;;44.08;33.05;;;;;;;6.80;92.37;100456.06;4896331;29;20052;-69
2021/10/30 00:29:40;;;;;;;45.38;33.17;;;;;;;6.76;93.25;100464.97;4880409;29;20053;-68
2021/10/30 00:32:08;;;;;;;43.97;32.40;;;;;;;6.76;93.36;100460.59;4896307;29;20051;-70
2021/10/30 00:34:35;;;;;;;45.85;34.25;;;;;;;6.58;94.76;100457.03;4873833;29;20562;-67
2021/10/30 00:37:02;;;;;;;48.47;34.50;;;;;;;6.48;95.37;100444.44;4897399;29;20059;-69
2021/10/30 00:39:30;;;;;;;46.75;33.65;;;;;;;6.64;94.97;100455.91;4893271;29;20070;-69
2021/10/30 00:41:57;;;;;;;47.42;33.33;;;;;;;6.51;95.42;100454.75;4892872;29;20480;-69
2021/10/30 00:44:24;;;;;;;43.65;31.83;;;;;;;6.51;96.31;100452.16;4876623;29;20060;-69
2021/10/30 00:46:52;;;;;;;45.55;33.03;;;;;;;6.65;95.75;100451.53;4878239;29;20445;-69
2021/10/30 00:49:21;;;;;;;49.80;34.40;;;;;;;6.64;95.66;100452.44;4892838;29;20076;-68
2021/10/30 00:51:52;;;;;;;46.33;34.75;;;;;;;6.69;95.60;100451.31;4900644;29;20140;-69
2021/10/30 00:54:20;;;;;;;43.05;31.40;;;;;;;6.63;95.66;100456.00;4892058;29;20071;-68
2021/10/30 00:56:49;;;;;;;44.10;33.55;;;;;;;6.71;95.15;100438.16;4902272;29;20108;-68
2021/10/30 00:59:17;;;;;;;46.85;33.50;;;;;;;6.79;94.95;100447.34;4896906;29;20056;-69
2021/10/30 01:01:46;;;;;;;52.70;35.08;;;;;;;6.94;93.83;100444.97;4882876;29;20139;-69
2021/10/30 01:04:14;;;;;;;43.67;32.85;;;;;;;6.72;94.86;100434.66;4894276;29;20078;-68
2021/10/30 01:06:44;;;;;;;42.33;33.00;;;;;;;6.64;95.72;100442.84;4894021;29;20064;-69
2021/10/30 01:09:11;;;;;;;50.80;35.35;;;;;;;6.71;95.77;100444.25;4876336;29;20053;-69
2021/10/30 01:11:41;;;;;;;46.60;33.75;;;;;;;6.82;95.18;100436.75;4880327;29;20090;-68
2021/10/30 01:14:09;;;;;;;47.65;36.28;;;;;;;6.92;94.25;100438.94;4892105;29;20057;-68
2021/10/30 01:16:37;;;;;;;46.78;33.55;;;;;;;6.89;94.07;100439.94;4874522;29;20049;-69
2021/10/30 01:19:05;;;;;;;47.05;35.05;;;;;;;6.84;94.35;100444.53;4877450;29;20063;-68
2021/10/30 01:21:34;;;;;;;45.25;33.20;;;;;;;6.72;95.08;100447.72;4896691;29;20078;-68
2021/10/30 01:24:06;;;;;;;44.92;34.10;;;;;;;6.64;95.84;100442.84;4892097;29;20467;-68
2021/10/30 01:26:34;;;;;;;48.40;35.88;;;;;;;6.67;95.93;100434.84;4893112;29;20064;-68
2021/10/30 01:29:02;;;;;;;48.75;33.25;;;;;;;6.72;95.94;100434.66;4892432;29;20057;-69
2021/10/30 01:31:30;;;;;;;47.78;32.92;;;;;;;6.84;94.64;100431.44;4889942;29;20068;-68
2021/10/30 01:33:58;;;;;;;56.78;34.40;;;;;;;6.82;94.75;100434.13;4887134;29;20064;-69
2021/10/30 01:36:26;;;;;;;45.78;33.85;;;;;;;6.85;95.12;100436.63;4871947;29;20070;-69
2021/10/30 01:38:53;;;;;;;44.42;33.97;;;;;;;6.94;93.95;100426.66;4887845;29;20055;-68
2021/10/30 01:41:24;;;;;;;50.63;33.40;;;;;;;6.82;94.65;100426.28;4875813;29;20058;-68
2021/10/30 01:43:52;;;;;;;47.38;34.70;;;;;;;6.77;95.14;100425.66;4892632;29;20123;-68
2021/10/30 01:46:20;;;;;;;47.55;33.30;;;;;;;6.88;94.77;100433.00;4892667;29;20061;-69
2021/10/30 01:48:47;;;;;;;42.33;32.25;;;;;;;6.96;94.73;100427.41;4893518;29;20067;-68
2021/10/30 01:51:15;;;;;;;43.72;34.45;;;;;;;6.97;94.42;100434.34;4873721;29;20071;-70
2021/10/30 01:53:42;;;;;;;48.13;34.00;;;;;;;7.03;94.43;100432.28;4870336;29;20056;-69
2021/10/30 01:56:10;;;;;;;44.95;33.75;;;;;;;7.08;94.05;100432.91;4879712;29;20185;-69
2021/10/30 01:58:38;;;;;;;46.75;33.63;;;;;;;7.11;93.29;100437.16;4852611;29;20099;-69
2021/10/30 02:01:07;;;;;;;46.03;33.47;;;;;;;7.07;94.10;100433.84;4891042;29;20059;-68
2021/10/30 02:03:35;;;;;;;47.10;34.67;;;;;;;6.98;94.16;100436.03;4872914;29;20067;-70
2021/10/30 02:06:04;;;;;;;47.80;34.35;;;;;;;7.01;94.02;100430.66;4870894;29;20059;-68
2021/10/30 02:08:31;;;;;;;49.33;34.60;;;;;;;6.97;94.43;100426.47;4892002;29;20922;-68
2021/10/30 02:11:00;;;;;;;48.03;34.47;;;;;;;6.99;94.61;100428.13;4874793;29;20051;-69
2021/10/30 02:13:29;;;;;;;47.58;34.67;;;;;;;6.95;94.53;100425.72;4892622;29;20655;-69
2021/10/30 02:15:56;;;;;;;51.58;35.97;;;;;;;6.91;94.51;100424.16;4879827;29;20051;-69
2021/10/30 02:18:23;;;;;;;49.08;33.63;;;;;;;6.98;94.27;100426.44;4896072;29;20059;-68
2021/10/30 02:20:50;;;;;;;48.00;35.10;;;;;;;6.91;94.72;100422.41;4877008;29;20071;-68
2021/10/30 02:23:19;;;;;;;47.88;34.13;;;;;;;6.81;94.98;100421.13;4891379;29;20077;-68
2021/10/30 02:25:46;;;;;;;48.17;36.25;;;;;;;6.68;96.41;100409.53;4889231;29;20053;-69
2021/10/30 02:28:13;;;;;;;48.75;34.13;;;;;;;6.81;96.48;100413.28;4876799;29;20052;-69
2021/10/30 02:30:40;;;;;;;52.42;36.47;;;;;;;6.75;96.30;100414.41;4889365;29;20056;-69
2021/10/30 02:33:07;;;;;;;45.08;34.80;;;;;;;6.75;96.34;100417.00;4876898;29;20052;-69
2021/10/30 02:35:35;;;;;;;50.58;36.63;;;;;;;6.69;96.71;100413.84;4892764;29;20053;-68
2021/10/30 02:38:02;;;;;;;47.08;35.30;;;;;;;6.71;96.80;100425.06;4896713;29;20404;-68
2021/10/30 02:40:29;;;;;;;51.95;36.13;;;;;;;6.75;96.83;100422.25;4894880;29;20062;-69
2021/10/30 02:42:57;;;;;;;51.47;35.75;;;;;;;6.76;96.54;100421.34;4882802;29;20048;-69
2021/10/30 02:45:24;;;;;;;47.35;33.92;;;;;;;6.83;96.28;100421.91;4910726;29;20128;-68
2021/10/30 02:47:51;;;;;;;48.25;34.53;;;;;;;6.74;96.85;100430.19;4912862;29;20072;-69
2021/10/30 02:50:19;;;;;;;54.10;38.17;;;;;;;6.69;96.61;100424.31;4891217;29;20084;-69
2021/10/30 02:52:46;;;;;;;47.45;35.72;;;;;;;6.66;97.08;100429.66;4896563;29;20267;-68
2021/10/30 02:55:14;;;;;;;45.13;33.25;;;;;;;6.56;97.22;100418.78;4891446;29;20057;-69
2021/10/30 02:57:48;;;;;;;43.15;33.70;;;;;;;6.71;96.94;100420.72;4880601;29;20052;-69
2021/10/30 03:00:15;;;;;;;49.47;34.90;;;;;;;6.65;97.01;100430.59;4894057;29;20053;-70
2021/10/30 03:02:43;;;;;;;51.47;34.33;;;;;;;6.55;97.45;100431.03;4896059;29;20053;-69
2021/10/30 03:05:11;;;;;;;52.85;36.58;;;;;;;6.57;97.48;100426.59;4893335;29;20063;-68
2021/10/30 03:07:38;;;;;;;48.75;32.65;;;;;;;6.56;97.25;100431.88;4897486;29;20053;-69
2021/10/30 03:10:06;;;;;;;46.75;34.20;;;;;;;6.63;96.47;100440.31;4890368;29;20057;-68
2021/10/30 03:12:34;;;;;;;48.90;33.60;;;;;;;6.52;97.37;100430.31;4902401;29;20154;-68
2021/10/30 03:15:01;;;;;;;48.38;33.85;;;;;;;6.58;97.27;100432.66;4893895;29;20052;-68
2021/10/30 03:17:28;;;;;;;44.40;33.90;;;;;;;6.54;97.45;100444.19;4892083;29;20140;-68
2021/10/30 03:19:55;;;;;;;42.97;32.75;;;;;;;6.52;97.57;100439.00;4877708;29;20063;-69
2021/10/30 03:22:23;;;;;;;46.20;33.33;;;;;;;6.49;97.86;100436.53;4906386;29;20060;-69
2021/10/30 03:24:50;;;;;;;42.92;32.78;;;;;;;6.44;97.66;100445.47;4898311;29;20068;-68
2021/10/30 03:27:17;;;;;;;42.75;32.72;;;;;;;6.44;98.57;100437.63;4895584;29;20052;-68
2021/10/30 03:29:44;;;;;;;43.20;31.42;;;;;;;6.50;98.68;100435.63;4891927;29;20049;-69
2021/10/30 03:32:11;;;;;;;41.65;31.30;;;;;;;6.47;98.32;100435.75;4897132;29;20061;-69
2021/10/30 03:34:39;;;;;;;48.88;33.08;;;;;;;6.33;98.43;100435.50;4892621;29;20128;-69
2021/10/30 03:37:06;;;;;;;44.90;31.10;;;;;;;6.35;98.97;100428.47;4896919;29;20052;-68
2021/10/30 03:39:33;;;;;;;46.33;33.58;;;;;;;6.36;98.93;100424.09;4881578;29;20056;-68
2021/10/30 03:42:00;;;;;;;43.38;31.58;;;;;;;6.34;98.26;100431.97;4900912;29;20048;-68
2021/10/30 03:44:27;;;;;;;42.70;31.73;;;;;;;6.30;98.83;100433.91;4890249;29;20060;-68
2021/10/30 03:46:55;;;;;;;40.28;31.58;;;;;;;6.22;99.27;100428.16;4899207;29;20067;-69
2021/10/30 03:49:22;;;;;;;43.55;32.78;;;;;;;6.26;99.29;100429.72;4894485;29;20542;-68
2021/10/30 03:51:49;;;;;;;47.78;33.75;;;;;;;6.22;99.62;100429.94;4879229;29;20061;-69
2021/10/30 03:54:16;;;;;;;46.10;31.33;;;;;;;6.21;99.88;100433.44;4893638;29;20231;-69
2021/10/30 03:56:43;;;;;;;47.97;32.33;;;;;;;6.24;99.52;100430.69;4896668;29;20808;-68
2021/10/30 03:59:10;;;;;;;46.20;32.72;;;;;;;6.16;100.00;100425.78;4876441;29;20079;-68
2021/10/30 04:01:38;;;;;;;39.67;30.50;;;;;;;6.19;100.00;100417.81;4879175;29;20583;-69
2021/10/30 04:04:05;;;;;;;39.92;29.95;;;;;;;6.22;99.94;100422.09;4893328;29;20055;-68
2021/10/30 04:06:33;;;;;;;50.10;33.97;;;;;;;6.21;99.72;100415.97;4886008;29;20075;-68
2021/10/30 04:09:00;;;;;;;51.35;31.90;;;;;;;6.18;100.00;100417.91;4892960;29;20068;-69
2021/10/30 04:11:27;;;;;;;42.05;30.85;;;;;;;6.16;100.00;100417.09;4895129;29;20068;-70
2021/10/30 04:13:54;;;;;;;45.70;33.15;;;;;;;6.08;100.00;100423.53;4894264;29;20045;-69
2021/10/30 04:16:22;;;;;;;48.85;32.50;;;;;;;6.12;100.00;100423.38;4894313;29;20095;-68
2021/10/30 04:18:49;;;;;;;45.47;32.00;;;;;;;6.16;100.00;100419.72;4884985;29;20071;-68
2021/10/30 04:21:16;;;;;;;49.55;32.72;;;;;;;6.10;100.00;100423.47;4894674;29;20132;-68
2021/10/30 04:23:43;;;;;;;47.28;34.50;;;;;;;6.04;100.00;100421.13;4894332;29;20080;-68
2021/10/30 04:26:10;;;;;;;45.90;32.67;;;;;;;6.03;100.00;100416.78;4894786;29;20057;-67
2021/10/30 04:28:38;;;;;;;43.42;31.38;;;;;;;6.05;100.00;100412.38;4894230;29;20068;-68
2021/10/30 04:31:07;;;;;;;42.55;32.13;;;;;;;6.08;100.00;100413.09;4896607;29;20617;-67
2021/10/30 04:33:36;;;;;;;43.53;32.10;;;;;;;6.02;100.00;100412.50;4878478;29;20420;-66
2021/10/30 04:36:13;;;;;;;43.80;31.75;;;;;;;6.06;100.00;100414.91;4878999;29;20458;-67
2021/10/30 04:38:40;;;;;;;45.45;31.88;;;;;;;6.02;100.00;100415.94;4896667;29;20063;-68
2021/10/30 04:41:08;;;;;;;46.92;33.22;;;;;;;6.05;100.00;100407.13;4903965;29;20052;-67
2021/10/30 04:43:36;;;;;;;46.08;30.80;;;;;;;6.00;100.00;100409.94;4915764;29;20108;-67
2021/10/30 04:46:03;;;;;;;39.75;29.50;;;;;;;6.01;100.00;100408.19;4892826;29;20408;-68
2021/10/30 04:48:31;;;;;;;41.30;31.98;;;;;;;6.07;100.00;100420.97;4892931;29;20088;-67
2021/10/30 04:50:58;;;;;;;45.78;31.77;;;;;;;6.02;100.00;100408.09;4892755;29;20159;-68
2021/10/30 04:53:26;;;;;;;40.30;30.77;;;;;;;6.01;100.00;100405.56;4872236;29;20052;-67
2021/10/30 04:55:53;;;;;;;41.38;30.40;;;;;;;6.02;100.00;100409.88;4887329;29;20056;-68
2021/10/30 04:58:21;;;;;;;41.45;30.33;;;;;;;6.08;100.00;100407.00;4892204;29;20071;-69
2021/10/30 05:00:48;;;;;;;42.17;30.38;;;;;;;6.15;100.00;100407.56;4892178;29;20472;-69
2021/10/30 05:03:15;;;;;;;41.20;30.20;;;;;;;6.12;100.00;100400.72;4893227;29;20108;-69
2021/10/30 05:05:42;;;;;;;39.28;30.40;;;;;;;6.09;100.00;100404.31;4882749;29;20052;-68
2021/10/30 05:08:09;;;;;;;41.40;30.05;;;;;;;6.11;100.00;100391.19;4891803;29;20064;-68
2021/10/30 05:10:37;;;;;;;46.08;32.28;;;;;;;6.05;100.00;100386.22;4889665;29;20509;-67
2021/10/30 05:13:04;;;;;;;43.95;31.33;;;;;;;6.01;100.00;100379.44;4894681;29;20052;-68
2021/10/30 05:15:32;;;;;;;48.38;30.95;;;;;;;6.05;100.00;100379.22;4874284;29;20087;-68
2021/10/30 05:18:00;;;;;;;46.53;29.73;;;;;;;5.95;100.00;100374.50;4894988;29;20056;-69
2021/10/30 05:20:33;;;;;;;39.65;29.92;;;;;;;6.02;100.00;100375.91;5114716;27;20713;-69
2021/10/30 05:23:00;;;;;;;41.40;29.23;;;;;;;5.96;100.00;100371.81;5115282;28;20036;-69
2021/10/30 05:25:28;;;;;;;43.63;30.55;;;;;;;5.94;100.00;100376.22;5100189;27;20047;-68
2021/10/30 05:27:55;;;;;;;44.13;29.27;;;;;;;6.01;100.00;100374.22;5110221;28;20110;-69
2021/10/30 05:30:23;;;;;;;42.10;31.23;;;;;;;5.93;100.00;100378.91;5120025;28;20046;-71
2021/10/30 05:32:50;;;;;;;38.72;28.95;;;;;;;5.93;100.00;100378.91;5108351;28;20075;-68
2021/10/30 05:35:17;;;;;;;47.13;31.05;;;;;;;5.99;100.00;100382.13;5101626;28;20210;-69
2021/10/30 05:37:44;;;;;;;46.80;29.10;;;;;;;5.94;100.00;100376.22;5115810;27;20067;-69
2021/10/30 05:40:12;;;;;;;44.65;29.50;;;;;;;5.85;100.00;100376.59;5120711;28;20035;-69
2021/10/30 05:42:41;;;;;;;41.67;28.70;;;;;;;5.87;100.00;100379.16;5126763;27;20401;-69
2021/10/30 05:45:10;;;;;;;40.35;28.83;;;;;;;5.86;100.00;100374.88;5107882;28;20059;-68
2021/10/30 05:47:37;;;;;;;36.60;28.50;;;;;;;5.85;100.00;100376.59;5115911;28;20060;-69
2021/10/30 05:50:06;;;;;;;39.63;27.77;;;;;;;5.87;100.00;100376.56;5120459;27;20063;-69
2021/10/30 05:52:34;;;;;;;38.83;29.30;;;;;;;5.83;100.00;100383.66;5117279;27;20585;-67
2021/10/30 05:55:01;;;;;;;44.85;29.85;;;;;;;5.82;100.00;100379.38;5110834;28;20052;-69
2021/10/30 05:57:29;;;;;;;44.20;27.90;;;;;;;5.89;100.00;100375.56;5115743;27;20070;-70
2021/10/30 05:59:56;;;;;;;42.47;28.92;;;;;;;5.94;100.00;100378.00;5108382;27;20040;-70
2021/10/30 06:02:23;;;;;;;38.60;28.85;;;;;;;5.95;100.00;100375.34;5108978;27;20051;-68
2021/10/30 06:04:53;;;;;;;41.97;28.85;;;;;;;5.92;100.00;100383.31;5111547;27;20047;-68
2021/10/30 06:07:20;;;;;;;38.60;28.55;;;;;;;5.93;100.00;100377.16;5112401;27;20049;-69
2021/10/30 06:09:47;;;;;;;40.17;27.60;;;;;;;5.94;100.00;100372.78;5105901;27;20067;-69
2021/10/30 06:12:15;;;;;;;42.20;29.17;;;;;;;5.97;100.00;100375.25;5117710;27;20147;-71
2021/10/30 06:14:42;;;;;;;37.90;28.23;;;;;;;6.03;100.00;100377.59;5114524;27;20048;-72
2021/10/30 06:17:09;;;;;;;41.00;28.38;;;;;;;6.08;100.00;100373.88;5112000;27;20217;-70
2021/10/30 06:19:36;;;;;;;37.85;27.65;;;;;;;6.14;100.00;100375.38;5105075;27;20540;-69
2021/10/30 06:22:04;;;;;;;33.60;26.38;;;;;;;6.12;100.00;100371.13;5114793;27;20069;-71
2021/10/30 06:24:31;;;;;;;34.50;26.83;;;;;;;6.18;100.00;100378.69;5100526;28;20131;-70
2021/10/30 06:26:59;;;;;;;39.40;28.05;;;;;;;6.10;100.00;100379.03;5128481;27;20055;-68
2021/10/30 06:29:28;;;;;;;35.45;27.45;;;;;;;6.21;100.00;100384.63;5117931;27;20051;-68
2021/10/30 06:32:01;;;;;;;37.42;27.95;;;;;;;6.21;100.00;100391.63;5110703;28;20046;-67
2021/10/30 06:34:28;;;;;;;34.72;26.60;;;;;;;6.26;99.58;100390.50;5097256;27;20101;-70
2021/10/30 06:36:56;;;;;;;34.90;26.40;;;;;;;6.32;99.79;100382.38;5109753;28;20130;-69
2021/10/30 06:39:23;;;;;;;35.80;26.77;;;;;;;6.40;99.73;100384.66;5128633;28;21053;-68
2021/10/30 06:41:50;;;;;;;37.17;25.45;;;;;;;6.36;99.12;100388.31;5097523;28;20059;-69
2021/10/30 06:44:19;;;;;;;41.30;26.63;;;;;;;6.40;99.28;100391.66;5106751;27;20132;-69
2021/10/30 06:46:47;;;;;;;37.58;26.95;;;;;;;6.54;99.02;100389.25;5103344;28;20084;-68
2021/10/30 06:49:15;;;;;;;33.58;25.40;;;;;;;6.65;98.04;100386.13;5096257;28;20044;-69
2021/10/30 06:51:42;;;;;;;36.25;25.70;;;;;;;6.72;97.57;100390.16;5098347;28;20044;-69
2021/10/30 06:54:10;;;;;;;40.58;26.33;;;;;;;6.75;97.29;100390.00;5097801;28;20048;-69
2021/10/30 06:56:39;;;;;;;37.45;26.33;;;;;;;6.79;96.43;100384.56;5110939;28;20074;-69
2021/10/30 06:59:07;;;;;;;34.45;25.50;;;;;;;6.78;96.36;100388.09;5099830;28;20055;-69
2021/10/30 07:01:35;;;;;;;37.58;26.30;;;;;;;6.76;96.85;100389.13;5098820;28;20044;-72
2021/10/30 07:04:03;;;;;;;34.80;25.65;;;;;;;6.76;96.33;100392.56;5062452;28;20147;-70
2021/10/30 07:06:31;;;;;;;37.10;25.73;;;;;;;6.87;96.29;100383.38;5094411;28;20067;-68
2021/10/30 07:08:59;;;;;;;35.28;24.95;;;;;;;7.10;94.68;100380.47;5104694;27;20059;-68
2021/10/30 07:11:29;;;;;;;33.85;25.52;;;;;;;7.23;93.40;100378.13;5102739;28;20051;-69
2021/10/30 07:13:57;;;;;;;32.08;23.58;;;;;;;7.51;92.69;100377.59;5106193;28;20138;-68
2021/10/30 07:16:24;;;;;;;32.55;23.45;;;;;;;8.24;88.41;100371.19;5099237;28;20052;-67
2021/10/30 07:18:52;;;;;;;32.95;23.75;;;;;;;8.87;83.98;100371.25;5105392;28;20696;-70
2021/10/30 07:21:19;;;;;;;34.53;22.60;;;;;;;10.26;77.75;100370.13;5103074;28;20046;-69
2021/10/30 07:23:46;;;;;;;28.15;21.35;;;;;;;11.86;69.71;100361.47;5097763;28;20057;-69
2021/10/30 07:26:13;;;;;;;31.23;19.83;;;;;;;12.39;67.29;100364.00;5103910;27;20376;-69
2021/10/30 07:28:41;;;;;;;27.65;18.77;;;;;;;13.60;61.73;100358.66;5099599;28;20043;-69
2021/10/30 07:31:08;;;;;;;27.63;18.73;;;;;;;14.80;57.59;100360.75;5110814;28;20044;-69
2021/10/30 07:33:36;;;;;;;25.85;18.00;;;;;;;14.96;55.40;100357.69;5098279;28;20078;-70
2021/10/30 07:36:03;;;;;;;21.55;16.98;;;;;;;15.15;54.59;100355.22;5095317;28;20395;-70
2021/10/30 07:38:30;;;;;;;25.20;18.50;;;;;;;14.94;54.53;100365.75;5101012;28;20058;-68
2021/10/30 07:40:58;;;;;;;25.00;17.05;;;;;;;14.87;54.64;100367.25;5104870;28;20047;-70
2021/10/30 07:43:27;;;;;;;26.15;17.33;;;;;;;15.73;52.30;100356.66;5093631;28;20052;-70
2021/10/30 07:45:54;;;;;;;23.65;17.15;;;;;;;16.52;50.16;100360.38;5105855;28;20110;-68
2021/10/30 07:48:21;;;;;;;25.40;18.10;;;;;;;16.64;48.85;100363.78;5071177;22;20149;-66
2021/10/30 07:50:49;;;;;;;25.70;18.73;;;;;;;15.18;52.70;100357.63;5034988;28;20044;-68
2021/10/30 07:53:16;;;;;;;29.08;19.13;;;;;;;16.74;49.50;100363.84;5050298;28;20044;-64
2021/10/30 07:55:43;;;;;;;25.25;18.77;;;;;;;16.94;48.39;100365.56;5031262;28;20063;-65
2021/10/30 07:58:10;;;;;;;24.20;17.40;;;;;;;17.30;47.47;100358.75;5035484;28;20049;-68
2021/10/30 08:00:37;;;;;;;30.05;17.92;;;;;;;18.27;44.98;100360.38;5030566;28;20051;-66
2021/10/30 08:03:05;;;;;;;27.05;18.08;;;;;;;17.54;45.90;100355.63;5024898;28;20053;-66
2021/10/30 08:05:33;;;;;;;24.65;18.17;;;;;;;18.18;44.79;100360.28;5031728;28;20049;-67
2021/10/30 08:08:00;;;;;;;21.63;17.10;;;;;;;18.66;43.15;100353.91;5015646;28;20049;-70
2021/10/30 08:10:27;;;;;;;23.80;16.92;;;;;;;18.48;43.37;100348.50;5029410;28;20055;-67
2021/10/30 08:12:56;;;;;;;23.08;18.73;;;;;;;18.96;41.85;100336.75;5041644;28;20045;-68
2021/10/30 08:15:23;;;;;;;25.85;17.80;;;;;;;19.66;41.32;100341.38;5040281;28;20081;-67
2021/10/30 08:17:53;;;;;;;27.42;18.60;;;;;;;18.95;41.93;100334.22;5010972;28;20057;-67
2021/10/30 08:20:21;;;;;;;28.15;18.38;;;;;;;18.90;42.17;100344.50;5034754;28;20049;-67
2021/10/30 08:22:48;;;;;;;23.48;17.83;;;;;;;18.83;42.31;100338.13;5033114;28;20064;-68
2021/10/30 08:25:15;;;;;;;26.20;18.02;;;;;;;19.20;41.25;100333.47;5017610;28;20049;-68
2021/10/30 08:27:42;;;;;;;21.13;16.17;;;;;;;19.76;40.23;100333.25;5029415;28;20061;-66
2021/10/30 08:30:10;;;;;;;24.15;17.40;;;;;;;20.54;39.06;100328.69;5029062;28;20444;-66
2021/10/30 08:32:37;;;;;;;20.95;16.98;;;;;;;20.14;39.42;100321.31;5014894;28;20060;-68
2021/10/30 08:35:04;;;;;;;20.27;16.20;;;;;;;20.09;39.04;100315.59;5025957;28;20059;-67
2021/10/30 08:37:38;;;;;;;28.92;18.60;;;;;;;20.09;39.46;100318.28;5007156;28;20122;-67
2021/10/30 08:40:14;;;;;;;21.58;17.20;;;;;;;20.36;38.22;100312.72;5023881;28;20057;-69
2021/10/30 08:43:01;;;;;;;23.92;16.73;;;;;;;20.39;38.65;100309.69;5021679;28;20456;-68
2021/10/30 08:45:32;;;;;;;24.58;17.88;;;;;;;20.09;38.71;100312.94;4991968;28;20438;-67
2021/10/30 08:48:01;;;;;;;24.50;17.33;;;;;;;20.72;38.39;100310.69;5026852;28;20057;-67
2021/10/30 08:50:28;;;;;;;23.23;16.73;;;;;;;21.49;36.58;100305.91;5011359;28;20057;-67
2021/10/30 08:52:56;;;;;;;20.90;16.08;;;;;;;21.54;35.97;100291.19;5024136;28;20414;-67
2021/10/30 08:55:23;;;;;;;25.15;17.42;;;;;;;21.14;36.55;100287.50;5011800;28;20077;-66
2021/10/30 08:57:50;;;;;;;23.33;17.45;;;;;;;21.36;36.45;100286.03;5024198;28;20057;-67
2021/10/30 09:00:24;;;;;;;21.30;16.80;;;;;;;20.08;38.33;100290.69;5024167;28;20156;-67
2021/10/30 09:03:03;;;;;;;21.15;16.83;;;;;;;19.66;38.35;100272.78;5029407;28;20050;-67
2021/10/30 09:05:32;;;;;;;20.70;16.92;;;;;;;19.64;39.33;100277.44;5026654;28;20084;-66
2021/10/30 09:08:01;;;;;;;25.13;17.92;;;;;;;19.29;39.99;100261.50;5031598;28;20438;-67
2021/10/30 09:10:34;;;;;;;22.83;16.80;;;;;;;17.98;43.04;100262.78;4993052;28;20743;-67
2021/10/30 09:13:04;;;;;;;22.83;17.15;;;;;;;15.91;47.28;100260.38;5011021;28;20609;-67
2021/10/30 09:15:47;;;;;;;23.00;17.05;;;;;;;14.19;52.23;100263.19;5026148;28;20057;-67
2021/10/30 09:18:29;;;;;;;23.30;17.55;;;;;;;13.33;55.71;100261.09;5005472;28;20490;-67
2021/10/30 09:21:02;;;;;;;23.27;17.10;;;;;;;12.81;58.37;100259.69;5026318;28;20060;-66
2021/10/30 09:23:32;;;;;;;25.40;18.33;;;;;;;12.39;59.56;100261.03;5020801;28;20056;-67
2021/10/30 09:26:10;;;;;;;23.83;18.30;;;;;;;12.16;61.39;100257.41;5011655;28;20045;-68
2021/10/30 09:28:53;;;;;;;31.73;18.52;;;;;;;12.28;61.85;100250.41;5027093;28;20088;-59
2021/10/30 09:31:22;;;;;;;23.77;18.52;;;;;;;12.19;61.94;100246.63;5026989;28;20060;-58
2021/10/30 09:33:55;;;;;;;24.67;18.17;;;;;;;12.13;62.46;100254.97;5018486;28;20116;-57
2021/10/30 09:36:29;;;;;;;23.85;18.02;;;;;;;12.06;62.80;100253.72;5022885;28;20400;-61
2021/10/30 09:38:59;;;;;;;22.27;16.95;;;;;;;12.09;62.89;100243.81;5022848;28;20065;-61
2021/10/30 09:41:35;;;;;;;24.33;18.00;;;;;;;12.13;62.68;100241.78;5025495;28;20076;-59
2021/10/30 09:44:09;;;;;;;;;;;;;;;12.10;63.53;100244.63;5024755;28;20128;-59
2021/10/30 09:46:51;;;;;;;25.10;16.98;;;;;;;11.86;63.52;100240.16;5011010;28;19944;-62
2021/10/30 09:49:21;;;;;;;26.20;18.02;;;;;;;11.75;63.90;100228.63;5025668;28;20104;-58
2021/10/30 09:51:51;;;;;;;28.45;18.85;;;;;;;11.72;64.51;100239.41;5025682;28;20056;-59
2021/10/30 09:54:55;;;;;;;24.38;17.98;;;;;;;11.63;64.33;100238.25;5025498;28;20050;-59
2021/10/30 09:57:30;;;;;;;29.70;18.42;;;;;;;11.66;64.57;100244.16;5028055;28;20049;-59
2021/10/30 10:00:00;;;;;;;23.95;17.35;;;;;;;11.68;64.67;100233.50;5025369;28;20084;-58
2021/10/30 10:02:28;;;;;;;20.95;16.55;;;;;;;11.72;63.71;100240.25;5025082;28;20045;-59
2021/10/30 10:04:59;;;;;;;25.52;17.33;;;;;;;11.73;64.08;100231.38;5024664;28;20048;-59
2021/10/30 10:07:27;;;;;;;22.90;17.75;;;;;;;11.75;64.23;100229.50;5015200;28;20071;-60
2021/10/30 10:09:54;;;;;;;20.90;16.60;;;;;;;11.79;64.21;100227.47;5007031;28;20141;-59
2021/10/30 10:12:21;;;;;;;26.15;16.83;;;;;;;11.93;63.79;100230.00;5005813;28;20052;-58
2021/10/30 10:14:50;;;;;;;22.02;16.13;;;;;;;11.95;64.04;100209.66;5028211;28;20057;-56
2021/10/30 10:17:19;;;;;;;24.20;16.92;;;;;;;12.00;64.32;100202.25;5030869;28;20045;-58
2021/10/30 10:19:46;;;;;;;22.48;16.85;;;;;;;12.09;64.11;100206.03;5012982;28;20531;-57
2021/10/30 10:22:14;;;;;;;25.13;17.55;;;;;;;12.12;64.06;100190.81;5031097;28;20057;-60
2021/10/30 10:24:41;;;;;;;22.33;15.55;;;;;;;12.13;63.82;100184.56;5008969;28;20440;-60
2021/10/30 10:27:09;;;;;;;22.17;16.52;;;;;;;12.17;64.00;100179.94;5026253;28;20124;-59
2021/10/30 10:29:38;;;;;;;22.80;16.25;;;;;;;12.16;63.46;100173.81;5027907;28;20061;-59
2021/10/30 10:32:15;;;;;;;22.10;16.15;;;;;;;12.12;64.41;100169.72;5007864;28;20061;-57
2021/10/30 10:34:43;;;;;;;22.88;15.73;;;;;;;12.12;64.90;100163.59;5029412;28;20407;-58
2021/10/30 10:37:13;;;;;;;21.60;15.82;;;;;;;12.15;64.95;100169.47;5030220;28;20667;-58
2021/10/30 10:39:48;;;;;;;21.42;15.38;;;;;;;12.14;65.00;100173.06;5030105;28;20305;-60
2021/10/30 10:42:37;;;;;;;26.52;16.08;;;;;;;12.08;64.77;100178.78;5029392;28;20511;-58
2021/10/30 10:45:06;;;;;;;23.05;15.40;;;;;;;12.16;64.73;100167.69;5025036;28;20064;-57
2021/10/30 10:47:39;;;;;;;22.67;16.25;;;;;;;12.12;64.07;100161.78;5029210;28;20068;-58
2021/10/30 10:50:21;;;;;;;20.73;15.68;;;;;;;12.26;64.25;100138.81;5021664;28;20500;-59
2021/10/30 10:53:12;;;;;;;24.10;15.65;;;;;;;12.25;64.00;100135.34;5030487;28;20184;-55
2021/10/30 10:55:46;;;;;;;22.50;16.40;;;;;;;12.27;63.43;100135.22;5011958;28;20050;-55
2021/10/30 10:58:14;;;;;;;21.13;15.32;;;;;;;12.37;63.29;100144.16;5022796;28;20117;-57
2021/10/30 11:01:00;;;;;;;21.67;14.88;;;;;;;12.41;63.57;100135.88;5011159;28;20057;-60
2021/10/30 11:03:29;;;;;;;21.25;15.15;;;;;;;12.40;63.38;100133.38;5010928;28;20084;-59
2021/10/30 11:06:00;;;;;;;20.52;14.35;;;;;;;12.59;62.57;100125.75;5028816;28;20503;-58
2021/10/30 11:08:31;;;;;;;19.65;14.90;;;;;;;12.49;62.45;100116.84;5015993;28;21015;-58
2021/10/30 11:11:27;;;;;;;22.83;15.45;;;;;;;12.55;62.13;100119.00;5027914;28;20056;-54
2021/10/30 11:14:00;;;;;;;22.23;14.60;;;;;;;12.64;61.75;100115.66;5023336;28;20055;-56
2021/10/30 11:16:39;;;;;;;21.13;14.50;;;;;;;12.74;62.03;100112.34;5027576;28;20053;-59
2021/10/30 11:19:14;;;;;;;20.65;14.13;;;;;;;12.72;61.48;100116.91;5026421;28;20507;-60